Time;durP1;ratioP1;P1;durP2;ratioP2;P2;SDS_P1;SDS_P2;PMS_P1;PMS_P2;Temp;Humidity;BMP_temperature;BMP_pressure;BME280_temperature;BME280_humidity;BME280_pressure;Samples;Min_cycle;Max_cycle;Signal;HPM_P1;HPM_P2
2022/09/23 00:00:19;;;;;;;14.25;7.93;;;8.20;99.90;;;;;;5075324;28;20026;-67
2022/09/23 00:02:47;;;;;;;13.10;9.07;;;8.20;99.90;;;;;;5074340;28;20369;-68
2022/09/23 00:05:13;;;;;;;17.73;9.77;;;8.20;99.90;;;;;;5074303;28;20021;-68
2022/09/23 00:07:40;;;;;;;15.73;8.45;;;8.20;99.90;;;;;;5074611;28;20032;-68
2022/09/23 00:10:06;;;;;;;11.90;8.02;;;8.20;99.90;;;;;;5074678;28;20028;-68
2022/09/23 00:12:32;;;;;;;16.13;9.13;;;8.20;99.90;;;;;;5074085;28;20032;-68
2022/09/23 00:14:58;;;;;;;13.40;9.00;;;8.20;99.90;;;;;;5074512;28;20027;-68
2022/09/23 00:17:24;;;;;;;13.70;9.65;;;8.20;99.90;;;;;;5074673;28;20017;-68
2022/09/23 00:19:49;;;;;;;18.02;9.77;;;8.20;99.90;;;;;;5074439;28;20016;-68
2022/09/23 00:22:15;;;;;;;12.25;8.15;;;8.20;99.90;;;;;;5074526;28;20036;-68
2022/09/23 00:24:41;;;;;;;14.63;9.45;;;8.20;99.90;;;;;;5074086;28;20032;-68
2022/09/23 00:27:06;;;;;;;19.15;9.63;;;8.20;99.90;;;;;;5074319;28;20032;-68
2022/09/23 00:29:32;;;;;;;12.50;8.77;;;8.20;99.90;;;;;;5074244;28;20021;-67
2022/09/23 00:31:57;;;;;;;12.95;9.50;;;8.20;99.90;;;;;;5074111;28;20369;-67
2022/09/23 00:34:23;;;;;;;13.02;9.20;;;8.10;99.90;;;;;;5074172;28;20419;-67
2022/09/23 00:36:48;;;;;;;14.20;9.35;;;8.10;99.90;;;;;;5074078;28;20054;-67
2022/09/23 00:39:14;;;;;;;15.95;10.20;;;8.10;99.90;;;;;;5073807;28;20031;-67
2022/09/23 00:41:40;;;;;;;12.02;9.38;;;8.10;99.90;;;;;;5074589;28;20024;-67
2022/09/23 00:45:03;;;;;;;16.13;10.23;;;8.10;99.90;;;;;;5073991;28;20383;-67
2022/09/23 00:47:34;;;;;;;11.70;9.38;;;8.10;99.90;;;;;;4992788;28;20053;-67
2022/09/23 00:50:25;;;;;;;14.82;9.75;;;8.00;99.90;;;;;;4992927;28;20062;-67
2022/09/23 00:52:55;;;;;;;14.98;10.75;;;8.00;99.90;;;;;;5044510;28;20103;-67
2022/09/23 00:55:25;;;;;;;17.05;10.38;;;7.90;99.90;;;;;;5073819;28;20051;-67
2022/09/23 00:57:54;;;;;;;16.95;11.35;;;7.90;99.90;;;;;;5073700;28;20036;-67
2022/09/23 01:00:21;;;;;;;22.90;10.82;;;7.90;99.90;;;;;;5074061;28;20460;-67
2022/09/23 01:02:47;;;;;;;18.73;11.85;;;7.90;99.90;;;;;;5073033;28;20395;-67
2022/09/23 01:05:13;;;;;;;14.82;10.15;;;7.90;99.90;;;;;;5073757;28;20032;-67
2022/09/23 01:07:39;;;;;;;20.15;12.10;;;7.90;99.90;;;;;;5073644;28;20032;-67
2022/09/23 01:10:06;;;;;;;21.50;13.70;;;8.00;99.90;;;;;;5074082;28;20464;-67
2022/09/23 01:13:03;;;;;;;16.08;12.00;;;8.00;99.90;;;;;;5073442;28;20065;-67
2022/09/23 01:15:47;;;;;;;26.77;11.93;;;8.00;99.90;;;;;;5073399;28;20024;-67
2022/09/23 01:18:21;;;;;;;19.02;12.70;;;8.00;99.90;;;;;;5073747;28;20476;-68
2022/09/23 01:21:05;;;;;;;17.95;12.70;;;8.00;99.90;;;;;;5073630;28;20062;-68
2022/09/23 01:24:04;;;;;;;19.77;11.73;;;8.00;99.90;;;;;;5073661;28;20365;-68
2022/09/23 01:26:39;;;;;;;18.25;12.85;;;7.90;99.90;;;;;;5073616;28;20082;-68
2022/09/23 01:29:35;;;;;;;20.40;12.13;;;7.90;99.90;;;;;;5072856;28;20025;-68
2022/09/23 01:32:15;;;;;;;26.55;13.18;;;7.90;99.90;;;;;;5073359;28;20424;-68
2022/09/23 01:34:53;;;;;;;18.98;14.32;;;7.90;99.90;;;;;;5073185;28;20024;-68
2022/09/23 01:37:34;;;;;;;17.77;12.55;;;8.00;99.90;;;;;;5073500;28;20055;-67
2022/09/23 01:40:05;;;;;;;16.58;12.38;;;7.90;99.90;;;;;;5072955;28;20024;-67
2022/09/23 01:42:38;;;;;;;23.55;14.18;;;7.90;99.90;;;;;;5073377;28;20467;-67
2022/09/23 01:45:09;;;;;;;17.77;13.07;;;7.90;99.90;;;;;;5073385;28;20020;-67
2022/09/23 01:48:00;;;;;;;20.88;13.40;;;7.90;99.90;;;;;;5073233;28;20101;-67
2022/09/23 01:53:40;;;;;;;21.20;12.38;;;7.90;99.90;;;;;;5073120;28;20081;-67
2022/09/23 01:56:38;;;;;;;18.02;12.70;;;7.90;99.90;;;;;;5073149;28;20035;-67
2022/09/23 01:59:29;;;;;;;19.73;13.18;;;7.90;99.90;;;;;;5003580;28;20040;-67
2022/09/23 02:02:18;;;;;;;16.38;12.52;;;7.90;99.90;;;;;;5072592;28;20430;-67
2022/09/23 02:04:43;;;;;;;16.30;12.93;;;7.90;99.90;;;;;;5073352;28;20384;-67
2022/09/23 02:07:19;;;;;;;22.77;13.98;;;7.90;99.90;;;;;;5073250;28;20025;-67
2022/09/23 02:09:52;;;;;;;19.38;13.10;;;7.90;99.90;;;;;;5072627;28;20023;-67
2022/09/23 02:12:23;;;;;;;16.60;12.02;;;7.90;99.90;;;;;;5073187;28;20104;-67
2022/09/23 02:15:10;;;;;;;30.63;14.88;;;7.90;99.90;;;;;;5073171;28;20111;-67
2022/09/23 02:17:43;;;;;;;15.70;11.68;;;7.90;99.90;;;;;;5072679;28;20088;-67
2022/09/23 02:20:14;;;;;;;20.80;13.07;;;8.00;99.90;;;;;;5073036;28;20025;-67
2022/09/23 02:23:00;;;;;;;19.48;13.98;;;8.00;99.90;;;;;;5072880;28;20021;-67
2022/09/23 02:25:50;;;;;;;20.67;13.70;;;8.10;99.90;;;;;;5073776;28;20417;-67
2022/09/23 02:28:31;;;;;;;14.07;11.68;;;8.10;99.90;;;;;;5076978;28;20025;-67
2022/09/23 02:31:09;;;;;;;16.08;12.20;;;8.20;99.90;;;;;;5075747;28;20024;-67
2022/09/23 02:33:44;;;;;;;23.73;13.38;;;8.30;99.90;;;;;;5076845;28;20479;-67
2022/09/23 02:36:37;;;;;;;19.33;12.43;;;8.30;99.90;;;;;;5076132;28;20029;-67
2022/09/23 02:39:07;;;;;;;17.15;12.25;;;8.30;99.90;;;;;;5077219;28;20063;-67
2022/09/23 02:41:44;;;;;;;14.82;12.93;;;8.30;99.90;;;;;;5076465;28;20135;-67
2022/09/23 02:44:12;;;;;;;17.08;11.88;;;8.30;99.90;;;;;;5076642;28;20529;-67
2022/09/23 02:46:38;;;;;;;16.13;12.20;;;8.40;99.90;;;;;;5076276;28;20044;-67
2022/09/23 02:49:12;;;;;;;11.98;10.52;;;8.40;99.90;;;;;;5076237;28;20025;-67
2022/09/23 02:51:39;;;;;;;21.23;12.00;;;8.40;99.90;;;;;;5076093;28;20127;-67
2022/09/23 02:54:09;;;;;;;11.63;9.77;;;8.50;99.90;;;;;;5079632;22;20461;-69
2022/09/23 02:56:36;;;;;;;14.95;10.50;;;8.50;99.90;;;;;;5036317;28;20025;-69
2022/09/23 02:59:02;;;;;;;13.75;10.45;;;8.50;99.90;;;;;;5036379;28;20028;-69
2022/09/23 03:02:15;;;;;;;14.93;11.98;;;8.60;99.90;;;;;;5035915;28;20076;-69
2022/09/23 03:05:11;;;;;;;14.43;10.13;;;8.60;99.90;;;;;;4988580;28;20058;-69
2022/09/23 03:08:17;;;;;;;12.70;10.38;;;8.60;99.90;;;;;;4997075;28;20018;-69
2022/09/23 03:10:52;;;;;;;14.90;9.95;;;8.50;99.90;;;;;;4996701;28;20480;-69
2022/09/23 03:13:41;;;;;;;14.52;10.60;;;8.50;99.90;;;;;;4996256;28;20034;-69
2022/09/23 03:16:32;;;;;;;18.00;10.30;;;8.40;99.90;;;;;;4996838;28;20474;-69
2022/09/23 03:19:20;;;;;;;13.52;9.48;;;8.40;99.90;;;;;;4996678;28;20019;-69
2022/09/23 03:22:01;;;;;;;17.17;11.30;;;8.40;99.90;;;;;;4996821;28;20082;-69
2022/09/23 03:24:30;;;;;;;14.18;10.02;;;8.40;99.90;;;;;;4996704;28;20391;-69
2022/09/23 03:26:59;;;;;;;13.05;9.98;;;8.40;99.90;;;;;;4996333;28;20497;-69
2022/09/23 03:29:25;;;;;;;11.63;8.90;;;8.30;99.90;;;;;;4995835;28;20394;-69
2022/09/23 03:31:52;;;;;;;12.48;10.25;;;8.30;99.90;;;;;;4996145;28;20029;-69
2022/09/23 03:34:23;;;;;;;15.18;10.18;;;8.30;99.90;;;;;;4996315;28;20479;-69
2022/09/23 03:37:03;;;;;;;12.55;8.70;;;8.20;99.90;;;;;;4995063;28;20472;-69
2022/09/23 03:39:43;;;;;;;14.20;10.52;;;8.20;99.90;;;;;;4996325;28;20049;-69
2022/09/23 03:42:22;;;;;;;11.45;9.05;;;8.10;99.90;;;;;;4996479;28;20106;-69
2022/09/23 03:44:52;;;;;;;12.30;8.40;;;8.10;99.90;;;;;;4996103;28;20378;-69
2022/09/23 03:47:19;;;;;;;10.38;8.48;;;8.00;99.90;;;;;;4995470;28;20093;-69
2022/09/23 03:49:47;;;;;;;14.60;8.60;;;7.90;99.90;;;;;;4996119;28;20363;-69
2022/09/23 03:52:14;;;;;;;10.95;8.73;;;7.90;99.90;;;;;;4995864;28;20102;-69
2022/09/23 03:54:39;;;;;;;12.13;8.15;;;7.80;99.90;;;;;;4995710;28;20072;-69
2022/09/23 03:57:06;;;;;;;13.65;8.63;;;7.80;99.90;;;;;;4995433;28;20515;-69
2022/09/23 03:59:31;;;;;;;11.57;8.57;;;7.70;99.90;;;;;;4996024;28;20429;-69
2022/09/23 04:01:58;;;;;;;13.80;8.95;;;7.70;99.90;;;;;;4995815;28;20019;-70
2022/09/23 04:04:27;;;;;;;15.43;10.75;;;7.70;99.90;;;;;;4995524;28;20121;-69
2022/09/23 04:06:54;;;;;;;17.13;9.45;;;7.60;99.90;;;;;;4995295;28;20030;-69
2022/09/23 04:09:20;;;;;;;11.30;9.18;;;7.60;99.90;;;;;;4995530;28;20037;-69
2022/09/23 04:11:48;;;;;;;12.40;9.90;;;7.60;99.90;;;;;;4995683;28;20030;-69
2022/09/23 04:14:14;;;;;;;12.50;10.15;;;7.60;99.90;;;;;;4996368;28;20042;-69
2022/09/23 04:16:40;;;;;;;16.80;10.40;;;7.70;99.90;;;;;;4994894;28;20117;-69
2022/09/23 04:19:05;;;;;;;12.05;9.90;;;7.70;99.90;;;;;;4995307;28;20041;-69
2022/09/23 04:21:31;;;;;;;12.13;10.73;;;7.70;99.90;;;;;;4995441;28;20390;-69
2022/09/23 04:23:57;;;;;;;18.45;11.30;;;7.70;99.90;;;;;;4995491;28;20156;-69
2022/09/23 04:26:22;;;;;;;16.33;11.73;;;7.70;99.90;;;;;;4995265;28;20026;-69
2022/09/23 04:28:48;;;;;;;16.85;11.70;;;7.70;99.90;;;;;;4995462;28;20037;-69
2022/09/23 04:31:13;;;;;;;15.93;11.32;;;7.60;99.90;;;;;;4994648;28;20501;-69
2022/09/23 04:33:39;;;;;;;14.15;10.38;;;7.60;99.90;;;;;;4994889;28;20494;-69
2022/09/23 04:36:05;;;;;;;17.77;11.25;;;7.60;99.90;;;;;;4994995;28;20054;-69
2022/09/23 04:38:30;;;;;;;16.48;10.63;;;7.60;99.90;;;;;;4994870;28;20105;-70
2022/09/23 04:40:56;;;;;;;15.60;11.00;;;7.50;99.90;;;;;;4994883;28;20026;-69
2022/09/23 04:43:22;;;;;;;15.48;11.05;;;7.50;99.90;;;;;;4995149;28;20026;-69
2022/09/23 04:45:59;;;;;;;16.10;10.57;;;7.50;99.90;;;;;;4994868;28;20378;-70
2022/09/23 04:48:24;;;;;;;18.35;11.52;;;7.40;99.90;;;;;;4993621;28;20030;-69
2022/09/23 04:50:50;;;;;;;15.27;10.25;;;7.30;99.90;;;;;;4995036;28;20026;-69
2022/09/23 04:53:16;;;;;;;17.50;11.55;;;7.30;99.90;;;;;;4995965;28;20486;-70
2022/09/23 04:55:42;;;;;;;12.65;9.38;;;7.30;99.90;;;;;;5015698;28;20026;-69
2022/09/23 04:58:08;;;;;;;16.42;11.20;;;7.20;99.90;;;;;;5014665;28;20029;-69
2022/09/23 05:00:35;;;;;;;21.60;10.32;;;7.20;99.90;;;;;;5009775;28;20042;-69
2022/09/23 05:03:01;;;;;;;13.30;11.15;;;7.20;99.90;;;;;;4994652;28;20072;-69
2022/09/23 05:05:28;;;;;;;16.42;11.27;;;7.10;99.90;;;;;;4994526;28;20437;-69
2022/09/23 05:07:54;;;;;;;14.40;10.73;;;7.10;99.90;;;;;;4994527;28;20479;-69
2022/09/23 05:10:21;;;;;;;18.58;11.95;;;7.10;99.90;;;;;;4994741;28;20045;-69
2022/09/23 05:12:48;;;;;;;24.40;11.27;;;7.00;99.90;;;;;;4993773;28;20027;-70
2022/09/23 05:15:14;;;;;;;25.45;11.13;;;7.00;99.90;;;;;;4994382;28;20074;-69
2022/09/23 05:17:41;;;;;;;22.80;11.48;;;7.00;99.90;;;;;;4994574;28;20019;-69
2022/09/23 05:20:08;;;;;;;14.25;11.30;;;6.90;99.90;;;;;;4994906;28;20102;-69
2022/09/23 05:22:33;;;;;;;17.00;12.15;;;6.90;99.90;;;;;;4993835;28;20026;-69
2022/09/23 05:25:00;;;;;;;16.08;11.07;;;6.90;99.90;;;;;;4994512;28;20076;-69
2022/09/23 05:27:26;;;;;;;14.18;10.70;;;6.80;99.90;;;;;;4994582;28;20069;-69
2022/09/23 05:29:51;;;;;;;15.48;10.25;;;6.80;99.90;;;;;;5011369;28;20030;-69
2022/09/23 05:32:17;;;;;;;13.25;10.48;;;6.70;99.90;;;;;;5013824;28;20032;-69
2022/09/23 05:34:43;;;;;;;11.70;8.93;;;6.70;99.90;;;;;;5013900;28;20084;-69
2022/09/23 05:37:09;;;;;;;16.98;10.07;;;6.70;99.90;;;;;;5013178;28;20109;-69
2022/09/23 05:39:35;;;;;;;13.93;9.35;;;6.60;99.90;;;;;;5008962;28;20423;-69
2022/09/23 05:42:00;;;;;;;10.75;9.05;;;6.60;99.90;;;;;;4976643;28;20046;-69
2022/09/23 05:44:26;;;;;;;11.88;7.95;;;6.60;99.90;;;;;;4994063;28;20501;-69
2022/09/23 05:46:51;;;;;;;12.35;8.50;;;6.60;99.90;;;;;;4993479;28;20065;-69
2022/09/23 05:49:17;;;;;;;13.93;9.70;;;6.60;99.90;;;;;;4994082;28;20490;-69
2022/09/23 05:51:43;;;;;;;18.75;10.90;;;6.60;99.90;;;;;;4994082;28;20041;-69
2022/09/23 05:54:08;;;;;;;17.60;11.98;;;6.70;99.90;;;;;;4993805;28;20031;-69
2022/09/23 05:56:36;;;;;;;12.52;10.52;;;6.70;99.90;;;;;;4993360;28;20470;-69
2022/09/23 05:59:03;;;;;;;13.98;11.68;;;6.70;99.90;;;;;;4994202;28;20054;-69
2022/09/23 06:01:32;;;;;;;17.25;10.55;;;6.80;99.90;;;;;;4996917;28;20026;-69
2022/09/23 06:03:58;;;;;;;14.45;10.50;;;6.80;99.90;;;;;;4998071;28;20034;-69
2022/09/23 06:06:31;;;;;;;22.50;11.60;;;6.80;99.90;;;;;;4997218;28;20038;-69
2022/09/23 06:08:58;;;;;;;14.60;11.10;;;6.80;99.90;;;;;;4980334;28;20034;-69
2022/09/23 06:11:23;;;;;;;13.02;10.57;;;6.90;99.90;;;;;;4997781;28;20048;-69
2022/09/23 06:13:54;;;;;;;15.13;10.10;;;7.00;99.90;;;;;;4997633;28;20367;-69
2022/09/23 06:16:20;;;;;;;13.63;10.48;;;7.00;99.90;;;;;;4997912;28;20054;-69
2022/09/23 06:18:45;;;;;;;15.07;10.93;;;7.10;99.90;;;;;;4997537;28;20053;-69
2022/09/23 06:21:14;;;;;;;13.80;10.07;;;7.20;99.90;;;;;;4997607;28;20061;-69
2022/09/23 06:23:40;;;;;;;14.93;11.00;;;7.30;99.90;;;;;;4997412;28;20104;-69
2022/09/23 06:26:08;;;;;;;15.32;11.55;;;7.40;99.90;;;;;;4997377;28;20034;-69
2022/09/23 06:28:36;;;;;;;16.60;11.13;;;7.50;99.90;;;;;;4997510;28;20038;-69
2022/09/23 06:31:06;;;;;;;17.48;12.13;;;7.60;99.90;;;;;;4997056;28;20030;-69
2022/09/23 06:33:33;;;;;;;16.23;11.13;;;7.80;99.90;;;;;;5015404;28;20030;-69
2022/09/23 06:36:00;;;;;;;16.50;11.63;;;7.90;99.90;;;;;;5017158;28;20018;-69
2022/09/23 06:38:26;;;;;;;19.48;11.68;;;8.00;99.90;;;;;;5016742;28;20045;-69
2022/09/23 06:40:54;;;;;;;13.55;11.38;;;8.10;99.90;;;;;;5016346;28;20401;-70
2022/09/23 06:43:24;;;;;;;15.90;11.10;;;8.20;99.90;;;;;;5011971;28;20113;-69
2022/09/23 06:45:56;;;;;;;18.55;10.82;;;8.40;99.90;;;;;;4997076;28;20038;-69
2022/09/23 06:48:23;;;;;;;24.08;10.70;;;8.50;99.90;;;;;;4997511;28;20019;-69
2022/09/23 06:50:52;;;;;;;15.25;9.75;;;8.50;99.90;;;;;;4997017;28;20029;-69
2022/09/23 06:53:22;;;;;;;16.88;9.65;;;8.70;99.90;;;;;;4996182;28;20027;-69
2022/09/23 06:55:48;;;;;;;13.27;10.43;;;8.80;99.90;;;;;;4996884;28;20073;-69
2022/09/23 06:58:14;;;;;;;12.95;9.88;;;8.90;99.90;;;;;;4996834;28;20422;-69
2022/09/23 07:00:40;;;;;;;15.27;9.60;;;9.00;99.90;;;;;;4997135;28;20019;-69
2022/09/23 07:03:07;;;;;;;13.93;9.60;;;9.00;99.90;;;;;;4996269;28;20031;-69
2022/09/23 07:05:33;;;;;;;20.38;9.25;;;9.10;99.90;;;;;;4996649;28;20067;-68
2022/09/23 07:07:59;;;;;;;9.68;8.30;;;9.20;99.90;;;;;;4996696;28;20049;-69
2022/09/23 07:10:26;;;;;;;12.63;9.05;;;9.30;99.90;;;;;;4997156;28;20025;-69
2022/09/23 07:12:52;;;;;;;12.95;8.80;;;9.40;99.90;;;;;;4994985;28;20057;-69
2022/09/23 07:15:17;;;;;;;12.05;8.82;;;9.50;99.90;;;;;;4996628;28;20057;-69
2022/09/23 07:17:43;;;;;;;21.15;8.65;;;9.60;99.90;;;;;;4996993;28;20077;-69
2022/09/23 07:20:10;;;;;;;9.65;7.57;;;9.70;99.90;;;;;;4997697;28;20530;-69
2022/09/23 07:22:36;;;;;;;18.80;8.63;;;9.90;99.90;;;;;;4997345;28;20101;-69
2022/09/23 07:25:02;;;;;;;11.82;7.25;;;10.00;99.90;;;;;;4996817;28;20049;-69
2022/09/23 07:27:28;;;;;;;8.05;6.80;;;10.20;99.90;;;;;;4996466;28;20030;-69
2022/09/23 07:29:54;;;;;;;10.02;7.05;;;10.30;99.90;;;;;;4996447;28;20075;-69
2022/09/23 07:32:21;;;;;;;12.27;7.10;;;10.40;99.90;;;;;;4996291;28;20076;-69
2022/09/23 07:34:47;;;;;;;8.80;6.38;;;10.50;99.90;;;;;;4996355;28;20025;-69
2022/09/23 07:37:17;;;;;;;8.85;6.03;;;10.70;99.90;;;;;;4995876;28;20054;-69
2022/09/23 07:39:44;;;;;;;11.95;6.07;;;10.90;99.90;;;;;;4996139;28;20360;-69
2022/09/23 07:42:12;;;;;;;13.27;6.53;;;11.10;99.90;;;;;;4996166;28;20022;-69
2022/09/23 07:44:38;;;;;;;9.10;6.45;;;11.30;99.90;;;;;;4996002;28;20105;-69
2022/09/23 07:47:04;;;;;;;10.32;5.60;;;11.50;99.90;;;;;;4996231;28;20065;-70
2022/09/23 07:49:29;;;;;;;5.93;5.07;;;11.70;99.90;;;;;;4995651;28;20057;-69
2022/09/23 07:51:55;;;;;;;5.93;4.40;;;11.70;99.90;;;;;;4996019;28;20096;-69
2022/09/23 07:54:23;;;;;;;5.68;4.32;;;11.90;99.90;;;;;;4996467;28;20112;-69
2022/09/23 07:56:48;;;;;;;9.57;4.85;;;12.10;99.90;;;;;;4995823;28;20348;-69
2022/09/23 07:59:17;;;;;;;4.78;3.67;;;12.30;99.90;;;;;;4995974;28;20081;-72
2022/09/23 08:01:45;;;;;;;7.40;4.82;;;12.50;99.90;;;;;;4978097;28;20391;-72
2022/09/23 08:04:20;;;;;;;8.15;4.95;;;12.70;99.90;;;;;;4995946;28;20026;-72
2022/09/23 08:06:48;;;;;;;5.78;4.15;;;12.90;99.90;;;;;;4995960;28;20034;-72
2022/09/23 08:09:15;;;;;;;9.88;4.47;;;13.00;99.90;;;;;;4995530;28;20037;-72
2022/09/23 08:11:41;;;;;;;8.25;4.47;;;13.10;99.90;;;;;;4995771;28;20022;-72
2022/09/23 08:14:08;;;;;;;8.88;3.88;;;13.30;99.90;;;;;;4995678;28;20034;-71
2022/09/23 08:16:34;;;;;;;6.63;3.92;;;13.50;99.90;;;;;;4995859;28;20383;-72
2022/09/23 08:19:00;;;;;;;6.40;3.85;;;13.70;99.90;;;;;;4995149;28;20075;-71
2022/09/23 08:21:26;;;;;;;11.55;3.70;;;13.90;99.90;;;;;;4995730;28;20023;-72
2022/09/23 08:23:51;;;;;;;6.60;3.72;;;14.00;99.90;;;;;;4995331;28;20041;-72
2022/09/23 08:26:17;;;;;;;6.57;3.53;;;14.30;99.90;;;;;;4995110;28;20112;-72
2022/09/23 08:28:44;;;;;;;12.38;5.03;;;14.30;99.90;;;;;;4995646;28;20088;-72
2022/09/23 08:31:12;;;;;;;11.77;3.83;;;14.40;99.90;;;;;;5000780;28;20034;-72
2022/09/23 08:33:38;;;;;;;6.38;3.28;;;14.60;99.90;;;;;;5009454;28;20096;-71
2022/09/23 08:36:04;;;;;;;6.97;4.22;;;14.70;99.90;;;;;;5012958;28;20548;-71
2022/09/23 08:38:30;;;;;;;5.22;3.83;;;14.70;99.90;;;;;;5005898;28;20030;-71
2022/09/23 08:41:04;;;;;;;3.95;3.08;;;14.70;99.90;;;;;;4995221;28;20027;-72
2022/09/23 08:43:33;;;;;;;5.18;3.30;;;14.60;99.90;;;;;;4995587;28;20028;-72
2022/09/23 08:46:03;;;;;;;4.07;3.05;;;14.70;99.90;;;;;;4995647;28;20025;-72
2022/09/23 08:48:43;;;;;;;5.90;3.38;;;14.80;99.90;;;;;;4995194;28;20061;-69
2022/09/23 08:51:14;;;;;;;12.50;4.40;;;14.90;99.90;;;;;;4995941;28;20118;-69
2022/09/23 08:53:41;;;;;;;7.50;4.40;;;14.80;99.90;;;;;;4995098;28;20066;-69
2022/09/23 08:56:13;;;;;;;4.18;3.38;;;14.90;99.90;;;;;;4994999;28;20018;-69
2022/09/23 08:58:58;;;;;;;6.57;3.35;;;15.00;99.90;;;;;;4995055;28;20031;-71
2022/09/23 09:01:43;;;;;;;5.18;3.50;;;15.10;99.90;;;;;;4994693;28;20084;-70
2022/09/23 09:04:36;;;;;;;6.35;3.60;;;15.20;99.90;;;;;;4994858;28;20034;-70
2022/09/23 09:07:13;;;;;;;10.50;3.67;;;15.30;99.90;;;;;;4994119;28;20058;-70
2022/09/23 09:09:58;;;;;;;5.65;3.67;;;15.50;99.90;;;;;;4994575;28;20391;-70
2022/09/23 09:12:40;;;;;;;9.75;3.47;;;15.70;99.90;;;;;;4994609;28;20026;-70
2022/09/23 09:15:12;;;;;;;5.13;3.35;;;16.00;99.90;;;;;;4995009;28;20071;-70
2022/09/23 09:17:47;;;;;;;6.55;3.40;;;16.30;99.90;;;;;;4993106;28;20505;-70
2022/09/23 09:20:22;;;;;;;3.90;3.00;;;16.60;99.90;;;;;;4994089;28;20547;-70
2022/09/23 09:23:02;;;;;;;9.70;2.90;;;16.70;99.90;;;;;;4994385;28;20054;-70
2022/09/23 09:25:40;;;;;;;7.72;3.50;;;16.80;99.90;;;;;;4994621;28;20030;-70
2022/09/23 09:28:34;;;;;;;8.73;3.47;;;16.70;99.90;;;;;;4993753;28;20038;-70
2022/09/23 09:31:04;;;;;;;5.05;3.33;;;16.50;99.90;;;;;;4994986;28;20374;-71
2022/09/23 09:33:43;;;;;;;7.75;3.10;;;16.50;99.90;;;;;;4994094;28;20117;-71
2022/09/23 09:36:20;;;;;;;5.88;3.70;;;16.50;99.90;;;;;;4993862;28;20622;-70
2022/09/23 09:38:46;;;;;;;8.73;3.47;;;16.40;99.90;;;;;;4994644;28;20026;-70
2022/09/23 09:41:16;;;;;;;7.45;3.40;;;16.60;99.90;;;;;;4994350;28;20034;-70
2022/09/23 09:43:52;;;;;;;6.45;3.47;;;16.70;99.90;;;;;;4976202;28;20040;-71
2022/09/23 09:46:45;;;;;;;6.78;3.17;;;16.90;99.90;;;;;;4994106;28;20030;-71
2022/09/23 09:49:22;;;;;;;8.90;3.67;;;17.50;99.90;;;;;;4994842;28;20053;-70
2022/09/23 09:52:10;;;;;;;8.15;3.83;;;18.00;99.90;;;;;;4994600;28;20132;-70
2022/09/23 09:54:35;;;;;;;5.93;3.13;;;18.40;99.90;;;;;;4984364;28;20092;-70
2022/09/23 09:57:04;;;;;;;3.33;2.83;;;18.60;99.90;;;;;;4993453;28;20105;-70
2022/09/23 09:59:31;;;;;;;4.95;3.17;;;18.70;99.90;;;;;;4994169;28;20494;-71
2022/09/23 10:02:24;;;;;;;4.78;2.63;;;18.70;99.90;;;;;;4993815;28;20027;-71
2022/09/23 10:05:02;;;;;;;7.05;3.28;;;18.60;99.90;;;;;;4992903;28;20034;-71
2022/09/23 10:07:32;;;;;;;5.88;2.88;;;18.40;99.90;;;;;;4993520;28;20037;-70
2022/09/23 10:10:16;;;;;;;6.32;3.00;;;18.50;99.90;;;;;;4994098;28;20041;-71
2022/09/23 10:12:48;;;;;;;5.45;2.80;;;18.30;99.90;;;;;;4997924;28;20552;-70
2022/09/23 10:15:29;;;;;;;8.02;4.00;;;18.10;99.90;;;;;;5001193;28;20031;-71
2022/09/23 10:17:55;;;;;;;8.18;2.45;;;17.80;99.90;;;;;;4985890;28;20142;-71
2022/09/23 10:20:21;;;;;;;4.70;2.78;;;17.90;99.90;;;;;;5003468;28;20485;-71
2022/09/23 10:22:47;;;;;;;4.43;3.22;;;17.80;99.90;;;;;;5000426;28;20022;-70
2022/09/23 10:25:19;;;;;;;6.50;3.03;;;17.90;99.90;;;;;;5010544;28;20018;-72
2022/09/23 10:27:45;;;;;;;6.63;3.33;;;17.80;99.90;;;;;;5004117;28;20022;-73
2022/09/23 10:30:22;;;;;;;4.55;2.92;;;17.90;99.90;;;;;;5000906;28;20093;-71
2022/09/23 10:32:49;;;;;;;4.47;2.75;;;17.80;99.90;;;;;;5007734;28;20022;-71
2022/09/23 10:35:23;;;;;;;14.10;3.17;;;17.70;99.90;;;;;;5002258;28;20115;-71
2022/09/23 10:37:56;;;;;;;7.65;3.00;;;17.70;99.90;;;;;;5005002;28;20109;-71
2022/09/23 10:46:40;;;;;;;8.85;2.92;;;17.60;99.90;;;;;;4999931;28;20524;-71
2022/09/23 10:49:15;;;;;;;8.05;3.88;;;17.70;99.90;;;;;;5009106;28;20030;-71
2022/09/23 10:51:52;;;;;;;8.85;3.88;;;17.90;99.90;;;;;;5009712;28;20030;-70
2022/09/23 10:54:20;;;;;;;4.93;2.78;;;17.70;99.90;;;;;;4998062;28;20552;-71
2022/09/23 10:56:59;;;;;;;4.80;2.92;;;17.70;99.90;;;;;;5009446;28;20056;-71
2022/09/23 10:59:34;;;;;;;7.00;2.33;;;17.40;99.90;;;;;;5004532;28;20022;-70
2022/09/23 11:02:20;;;;;;;4.03;2.75;;;17.60;99.90;;;;;;5015712;28;20536;-71
2022/09/23 11:04:59;;;;;;;7.07;3.15;;;17.70;99.90;;;;;;5015811;28;20424;-70
2022/09/23 11:07:39;;;;;;;7.65;3.17;;;17.80;99.90;;;;;;5016330;28;20508;-69
2022/09/23 11:10:16;;;;;;;8.70;3.20;;;17.70;99.90;;;;;;5016519;28;20038;-70
2022/09/23 11:13:02;;;;;;;7.30;2.72;;;18.10;99.90;;;;;;5015801;28;20026;-70
2022/09/23 11:16:07;;;;;;;6.72;2.42;;;18.20;99.90;;;;;;5016260;28;20034;-69
2022/09/23 11:18:42;;;;;;;5.10;3.00;;;18.40;99.90;;;;;;5016082;28;20018;-70
2022/09/23 11:21:26;;;;;;;4.40;2.58;;;18.30;99.90;;;;;;5015734;28;20149;-70
2022/09/23 11:24:27;;;;;;;6.25;2.65;;;18.30;99.90;;;;;;5015918;28;20022;-70
2022/09/23 11:27:13;;;;;;;7.93;2.20;;;18.10;99.90;;;;;;5012207;28;20037;-69
2022/09/23 11:29:58;;;;;;;5.75;2.67;;;18.30;99.90;;;;;;5015653;28;20053;-70
2022/09/23 11:32:52;;;;;;;10.30;2.33;;;18.10;99.90;;;;;;5015948;28;20478;-70
2022/09/23 11:35:31;;;;;;;5.28;2.45;;;18.10;99.90;;;;;;5016051;28;20570;-70
2022/09/23 11:38:05;;;;;;;7.15;2.80;;;18.20;99.90;;;;;;5016011;28;20110;-70
2022/09/23 11:40:34;;;;;;;4.28;2.45;;;18.40;99.90;;;;;;5015986;28;20018;-70
2022/09/23 11:43:22;;;;;;;4.45;2.42;;;18.60;99.90;;;;;;5015095;28;20116;-70
2022/09/23 11:46:19;;;;;;;5.60;2.00;;;18.70;99.90;;;;;;5015875;28;20096;-70
2022/09/23 11:48:55;;;;;;;5.18;3.10;;;18.70;99.90;;;;;;5015576;28;20034;-70
2022/09/23 11:51:28;;;;;;;11.15;3.20;;;18.40;99.90;;;;;;5015035;28;20025;-71
2022/09/23 11:54:08;;;;;;;7.90;3.40;;;18.40;99.90;;;;;;5015517;28;20121;-71
2022/09/23 11:56:41;;;;;;;7.53;3.25;;;18.40;99.90;;;;;;5015636;28;20017;-71
2022/09/23 11:59:28;;;;;;;9.65;2.72;;;18.30;99.90;;;;;;5014357;28;20034;-71
2022/09/23 12:02:16;;;;;;;13.55;2.63;;;18.50;99.90;;;;;;5015498;28;20076;-71
2022/09/23 12:04:47;;;;;;;8.00;3.50;;;19.00;99.90;;;;;;5001306;28;20034;-71
2022/09/23 12:07:23;;;;;;;9.10;3.78;;;19.20;99.90;;;;;;5015168;28;20081;-70
2022/09/23 12:10:01;;;;;;;5.13;3.00;;;19.10;99.90;;;;;;5015265;28;20378;-70
2022/09/23 12:12:35;;;;;;;3.75;2.65;;;19.40;99.90;;;;;;5014651;28;20056;-72
2022/09/23 12:15:25;;;;;;;5.63;3.08;;;19.30;99.90;;;;;;5016365;28;20030;-72
2022/09/23 12:18:09;;;;;;;5.15;2.95;;;19.10;99.90;;;;;;5016809;28;20037;-72
2022/09/23 12:20:47;;;;;;;5.15;3.10;;;18.90;99.90;;;;;;5015603;28;20057;-72
2022/09/23 12:23:33;;;;;;;5.95;3.08;;;18.60;99.90;;;;;;5014509;28;20500;-70
2022/09/23 12:26:05;;;;;;;6.82;3.60;;;18.40;99.90;;;;;;5015209;28;20030;-70
2022/09/23 12:28:38;;;;;;;8.63;3.53;;;18.30;99.90;;;;;;5015221;28;20478;-70
2022/09/23 12:31:08;;;;;;;13.98;4.68;;;18.20;99.90;;;;;;5010483;28;20025;-69
2022/09/23 12:33:35;;;;;;;4.57;2.90;;;18.10;99.90;;;;;;5005376;28;20038;-70
2022/09/23 12:36:07;;;;;;;6.22;3.55;;;18.30;99.90;;;;;;5014657;28;20088;-70
2022/09/23 12:38:36;;;;;;;14.20;3.00;;;18.20;99.90;;;;;;5013389;28;20021;-69
2022/09/23 12:41:18;;;;;;;6.53;3.83;;;18.10;99.90;;;;;;5014854;28;20033;-69
2022/09/23 12:43:57;;;;;;;7.78;4.03;;;18.00;99.90;;;;;;5014468;28;20446;-69
2022/09/23 12:46:26;;;;;;;6.72;4.13;;;18.00;99.90;;;;;;5014601;28;20033;-70
2022/09/23 12:48:57;;;;;;;9.35;3.90;;;17.90;99.90;;;;;;5000439;28;20027;-69
2022/09/23 12:51:24;;;;;;;9.60;4.00;;;18.00;99.90;;;;;;4994807;28;20153;-69
2022/09/23 12:53:54;;;;;;;8.48;3.67;;;18.20;99.90;;;;;;4994614;28;20030;-69
2022/09/23 12:56:47;;;;;;;6.95;3.97;;;18.40;99.90;;;;;;4994498;28;20111;-70
2022/09/23 12:59:24;;;;;;;14.05;4.32;;;18.70;99.90;;;;;;4994499;28;20475;-69
2022/09/23 13:01:50;;;;;;;7.10;3.83;;;19.10;99.90;;;;;;4995181;28;20023;-69
2022/09/23 13:07:30;;;;;;;9.32;4.05;;;19.60;99.90;;;;;;4994766;28;20556;-70
2022/09/23 13:10:14;;;;;;;6.22;3.88;;;19.50;99.90;;;;;;4993905;28;20113;-70
2022/09/23 13:12:41;;;;;;;;;;;19.80;99.90;;;;;;5002471;28;20446;-70
2022/09/23 13:15:24;;;;;;;10.98;3.92;;;20.00;99.90;;;;;;5014297;28;19909;-70
2022/09/23 13:17:49;;;;;;;8.93;5.00;;;20.20;99.90;;;;;;5014260;28;20080;-70
2022/09/23 13:20:20;;;;;;;8.05;3.38;;;20.10;99.90;;;;;;5010161;28;20018;-70
2022/09/23 13:22:52;;;;;;;5.30;3.60;;;20.00;99.90;;;;;;4993778;28;20026;-70